createdAt,value
2023-05-22T00:00:18.177Z,14.82
2023-05-22T00:02:46.032Z,14.95
2023-05-22T00:05:13.686Z,15.38
2023-05-22T00:07:52.607Z,15.48
2023-05-22T00:10:19.603Z,16.52
2023-05-22T00:12:52.869Z,15.48
2023-05-22T00:15:19.688Z,15.68
2023-05-22T00:17:47.723Z,17.80
2023-05-22T00:20:15.424Z,16.25
2023-05-22T00:22:45.665Z,16.25
2023-05-22T00:25:13.953Z,16.23
2023-05-22T00:27:41.121Z,17.05
2023-05-22T00:30:16.182Z,16.40
2023-05-22T00:32:47.304Z,17.67
2023-05-22T00:35:15.999Z,16.23
2023-05-22T00:37:48.865Z,16.90
2023-05-22T00:40:18.843Z,16.20
2023-05-22T00:42:51.612Z,15.93
2023-05-22T00:45:18.568Z,16.48
2023-05-22T00:47:45.364Z,17.33
2023-05-22T00:50:16.042Z,17.25
2023-05-22T00:52:49.201Z,17.55
2023-05-22T00:55:16.939Z,17.98
2023-05-22T00:57:51.924Z,16.60
2023-05-22T01:00:19.087Z,17.40
2023-05-22T01:02:46.240Z,18.35
2023-05-22T01:05:18.009Z,17.98
2023-05-22T01:07:48.632Z,18.13
2023-05-22T01:10:17.626Z,16.00
2023-05-22T01:12:57.402Z,17.27
2023-05-22T01:15:34.975Z,16.33
2023-05-22T01:18:20.663Z,16.67
2023-05-22T01:20:53.049Z,16.17
2023-05-22T01:23:21.870Z,17.02
2023-05-22T01:25:56.769Z,15.75
2023-05-22T01:28:23.706Z,16.20
2023-05-22T01:30:55.368Z,16.33
2023-05-22T01:33:26.289Z,17.73
2023-05-22T01:35:54.458Z,17.98
2023-05-22T01:38:21.988Z,17.98
2023-05-22T01:40:48.913Z,18.13
2023-05-22T01:43:16.282Z,17.35
2023-05-22T01:45:43.315Z,16.55
2023-05-22T01:48:12.427Z,17.88
2023-05-22T01:50:40.225Z,17.17
2023-05-22T01:53:22.750Z,17.30
2023-05-22T01:55:57.906Z,18.00
2023-05-22T01:58:30.175Z,17.15
2023-05-22T02:01:01.365Z,18.65
2023-05-22T02:03:30.569Z,16.85
2023-05-22T02:05:59.994Z,17.20
2023-05-22T02:08:27.992Z,17.98
2023-05-22T02:10:56.189Z,18.63
2023-05-22T02:13:23.717Z,18.98
2023-05-22T02:15:51.233Z,18.77
2023-05-22T02:18:18.227Z,17.00
2023-05-22T02:20:46.043Z,17.45
2023-05-22T02:23:12.830Z,18.88
2023-05-22T02:25:40.786Z,18.58
2023-05-22T02:28:07.718Z,18.33
2023-05-22T02:30:34.707Z,19.40
2023-05-22T02:33:05.561Z,19.17
2023-05-22T02:35:40.047Z,17.95
2023-05-22T02:38:06.985Z,18.08
2023-05-22T02:40:40.881Z,18.45
2023-05-22T02:43:07.996Z,16.83
2023-05-22T02:45:36.252Z,17.02
2023-05-22T02:48:04.011Z,18.00
2023-05-22T02:50:32.389Z,17.85
2023-05-22T02:52:59.316Z,18.10
2023-05-22T02:55:26.684Z,17.70
2023-05-22T02:57:53.728Z,18.23
2023-05-22T03:00:25.094Z,19.30
2023-05-22T03:02:54.841Z,18.70
2023-05-22T03:05:30.737Z,18.83
2023-05-22T03:07:58.113Z,18.27
2023-05-22T03:10:25.266Z,18.77
2023-05-22T03:12:52.118Z,18.08
2023-05-22T03:15:19.041Z,19.15
2023-05-22T03:17:46.375Z,19.42
2023-05-22T03:20:18.063Z,18.52
2023-05-22T03:22:50.400Z,18.10
2023-05-22T03:25:17.275Z,17.30
2023-05-22T03:27:50.432Z,19.90
2023-05-22T03:30:17.321Z,18.45
2023-05-22T03:32:54.602Z,18.17
2023-05-22T03:35:21.667Z,16.83
2023-05-22T03:37:57.874Z,18.67
2023-05-22T03:40:25.080Z,17.55
2023-05-22T03:42:52.260Z,17.67
2023-05-22T03:45:19.031Z,17.80
2023-05-22T03:47:48.325Z,17.65
2023-05-22T03:50:18.540Z,17.98
2023-05-22T03:52:48.709Z,18.83
2023-05-22T03:55:16.509Z,18.02
2023-05-22T03:57:50.638Z,16.67
2023-05-22T04:00:19.787Z,17.38
2023-05-22T04:02:46.939Z,16.80
2023-05-22T04:05:16.509Z,16.05
2023-05-22T04:07:48.576Z,15.88
2023-05-22T04:10:16.228Z,16.25
2023-05-22T04:12:50.541Z,16.20
2023-05-22T04:15:17.365Z,15.65
2023-05-22T04:17:46.263Z,16.80
2023-05-22T04:20:15.907Z,16.73
2023-05-22T04:22:43.697Z,16.60
2023-05-22T04:25:13.412Z,16.70
2023-05-22T04:27:40.794Z,16.80
2023-05-22T04:30:09.021Z,16.00
2023-05-22T04:32:48.887Z,16.88
2023-05-22T04:35:18.801Z,16.40
2023-05-22T04:37:51.579Z,16.58
2023-05-22T04:40:18.897Z,15.88
2023-05-22T04:42:54.382Z,15.40
2023-05-22T04:45:26.679Z,16.00
2023-05-22T04:47:53.720Z,16.15
2023-05-22T04:50:21.082Z,16.20
2023-05-22T04:52:49.522Z,15.90
2023-05-22T04:55:16.593Z,16.77
2023-05-22T04:57:50.816Z,16.17
2023-05-22T05:00:20.956Z,16.25
2023-05-22T05:02:49.771Z,16.52
2023-05-22T05:05:18.723Z,15.77
2023-05-22T05:07:52.074Z,15.70
2023-05-22T05:10:19.815Z,14.80
2023-05-22T05:12:50.922Z,16.70
2023-05-22T05:15:18.332Z,16.00
2023-05-22T05:17:45.670Z,15.35
2023-05-22T05:20:14.646Z,16.58
2023-05-22T05:22:48.474Z,16.02
2023-05-22T05:25:16.482Z,16.45
2023-05-22T05:27:49.813Z,17.33
2023-05-22T05:30:20.558Z,16.25
2023-05-22T05:33:17.578Z,17.92
2023-05-22T05:36:00.154Z,17.58
2023-05-22T05:38:28.063Z,19.42
2023-05-22T05:40:56.221Z,19.25
2023-05-22T05:43:27.891Z,19.75
2023-05-22T05:46:02.730Z,20.67
2023-05-22T05:48:30.527Z,20.13
2023-05-22T05:50:57.942Z,20.98
2023-05-22T05:53:29.183Z,21.90
2023-05-22T05:55:58.830Z,22.73
2023-05-22T05:58:29.341Z,22.92
2023-05-22T06:01:24.994Z,23.73
2023-05-22T06:03:52.451Z,23.17
2023-05-22T06:06:37.650Z,23.98
2023-05-22T06:09:10.681Z,26.25
2023-05-22T06:12:03.317Z,25.30
2023-05-22T06:14:30.688Z,27.70
2023-05-22T06:17:07.696Z,27.45
2023-05-22T06:19:37.457Z,26.88
2023-05-22T06:22:04.614Z,28.60
2023-05-22T06:24:32.708Z,26.92
2023-05-22T06:27:05.665Z,26.02
2023-05-22T06:29:36.174Z,29.73
2023-05-22T06:32:07.309Z,28.10
2023-05-22T06:34:36.936Z,27.73
2023-05-22T06:37:04.658Z,27.10
2023-05-22T06:39:38.028Z,27.65
2023-05-22T06:42:23.974Z,27.38
2023-05-22T06:45:12.623Z,28.13
2023-05-22T06:47:52.604Z,29.27
2023-05-22T06:50:20.829Z,26.90
2023-05-22T06:52:49.271Z,28.45
2023-05-22T06:55:16.702Z,27.35
2023-05-22T06:58:13.185Z,28.05
2023-05-22T07:00:40.557Z,26.65
2023-05-22T07:03:16.112Z,25.83
2023-05-22T07:06:03.682Z,27.55
2023-05-22T07:08:35.526Z,25.25
2023-05-22T07:11:02.419Z,24.10
2023-05-22T07:13:34.082Z,26.38
2023-05-22T07:16:04.508Z,24.77
2023-05-22T07:18:32.102Z,22.73
2023-05-22T07:20:59.191Z,22.92
2023-05-22T07:23:29.323Z,21.80
2023-05-22T07:25:56.771Z,22.98
2023-05-22T07:28:33.211Z,20.77
2023-05-22T07:31:06.577Z,20.75
2023-05-22T07:33:33.589Z,19.55
2023-05-22T07:36:01.512Z,19.45
2023-05-22T07:38:28.707Z,18.30
2023-05-22T07:40:59.609Z,19.00
2023-05-22T07:43:31.508Z,18.80
2023-05-22T07:45:59.528Z,18.30
2023-05-22T07:48:30.946Z,17.92
2023-05-22T07:50:58.124Z,16.40
2023-05-22T07:53:29.533Z,18.40
2023-05-22T07:55:59.692Z,17.63
2023-05-22T07:58:32.316Z,17.85
2023-05-22T08:01:00.402Z,17.48
2023-05-22T08:03:27.753Z,16.65
2023-05-22T08:05:54.986Z,17.30
2023-05-22T08:08:23.037Z,17.30
2023-05-22T08:11:03.743Z,17.60
2023-05-22T08:13:32.441Z,17.42
2023-05-22T08:16:01.496Z,17.40
2023-05-22T08:18:29.264Z,16.50
2023-05-22T08:20:56.298Z,15.38
2023-05-22T08:23:23.462Z,15.50
2023-05-22T08:25:50.371Z,15.70
2023-05-22T08:28:17.550Z,16.40
2023-05-22T08:30:47.147Z,15.60
2023-05-22T08:33:14.110Z,15.75
2023-05-22T08:35:41.081Z,15.25
2023-05-22T08:38:09.812Z,16.95
2023-05-22T08:40:41.836Z,16.05
2023-05-22T08:43:10.109Z,16.00
2023-05-22T08:45:42.512Z,15.27
2023-05-22T08:48:13.759Z,15.68
2023-05-22T08:50:43.343Z,16.02
2023-05-22T08:53:11.828Z,16.00
2023-05-22T08:55:38.782Z,15.18
2023-05-22T08:58:07.045Z,16.20
2023-05-22T09:00:34.699Z,15.60
2023-05-22T09:03:01.803Z,16.48
2023-05-22T09:05:29.846Z,15.95
2023-05-22T09:08:02.584Z,15.70
2023-05-22T09:10:32.753Z,14.80
2023-05-22T09:13:04.431Z,15.73
2023-05-22T09:15:32.276Z,16.25
2023-05-22T09:18:01.121Z,15.27
2023-05-22T09:20:28.403Z,15.82
2023-05-22T09:22:55.469Z,15.60
2023-05-22T09:25:23.393Z,16.63
2023-05-22T09:27:51.647Z,17.05
2023-05-22T09:30:20.748Z,16.60
2023-05-22T09:32:49.109Z,16.10
2023-05-22T09:35:16.638Z,16.42
2023-05-22T09:37:56.385Z,15.52
2023-05-22T09:40:24.129Z,17.42
2023-05-22T09:42:54.752Z,16.35
2023-05-22T09:45:24.257Z,16.48
2023-05-22T09:47:51.400Z,17.23
2023-05-22T09:50:18.677Z,16.15
2023-05-22T09:52:48.288Z,15.90
2023-05-22T09:55:19.017Z,16.63
2023-05-22T09:57:52.481Z,16.13
2023-05-22T10:00:20.316Z,15.23
2023-05-22T10:02:54.525Z,15.98
2023-05-22T10:05:22.322Z,17.33
2023-05-22T10:07:55.667Z,16.80
2023-05-22T10:10:24.767Z,17.27
2023-05-22T10:12:55.266Z,16.70
2023-05-22T10:15:23.734Z,15.88
2023-05-22T10:17:55.624Z,16.90
2023-05-22T10:20:22.671Z,16.17
2023-05-22T10:22:51.438Z,17.13
2023-05-22T10:25:19.793Z,16.73
2023-05-22T10:27:53.773Z,16.85
2023-05-22T10:30:24.974Z,16.77
2023-05-22T10:33:49.224Z,15.68
2023-05-22T10:36:35.714Z,16.30
2023-05-22T10:39:13.143Z,16.23
2023-05-22T10:41:42.336Z,17.20
2023-05-22T10:44:12.322Z,16.70
2023-05-22T10:46:40.429Z,16.08
2023-05-22T10:49:08.961Z,17.65
2023-05-22T10:51:35.823Z,16.48
2023-05-22T10:54:05.904Z,16.90
2023-05-22T10:56:35.696Z,15.90
2023-05-22T10:59:06.130Z,15.63
2023-05-22T11:01:40.654Z,16.02
2023-05-22T11:04:12.989Z,17.83
2023-05-22T11:06:47.282Z,18.27
2023-05-22T11:09:33.635Z,17.23
2023-05-22T11:12:18.010Z,17.35
2023-05-22T11:14:49.368Z,17.88
2023-05-22T11:17:28.126Z,16.23
2023-05-22T11:20:06.031Z,17.33
2023-05-22T11:22:40.799Z,17.48
2023-05-22T11:25:12.073Z,17.55
2023-05-22T11:27:40.656Z,17.50
2023-05-22T11:30:09.697Z,17.23
2023-05-22T11:32:44.514Z,15.68
2023-05-22T11:35:22.037Z,15.77
2023-05-22T11:37:51.401Z,15.75
2023-05-22T11:40:19.089Z,16.38
2023-05-22T11:42:55.753Z,17.08
2023-05-22T11:45:23.728Z,16.63
2023-05-22T11:47:51.901Z,16.83
2023-05-22T11:52:50.137Z,17.58
2023-05-22T11:55:17.282Z,16.83
2023-05-22T11:57:51.728Z,15.63
2023-05-22T12:00:18.989Z,16.02
2023-05-22T12:02:49.181Z,15.48
2023-05-22T12:05:16.854Z,16.30
2023-05-22T12:07:49.780Z,15.60
2023-05-22T12:10:17.730Z,15.55
2023-05-22T12:12:53.111Z,15.18
2023-05-22T12:15:23.166Z,14.23
2023-05-22T12:17:50.464Z,16.15
2023-05-22T12:20:18.094Z,15.70
2023-05-22T12:22:49.382Z,16.08
2023-05-22T12:25:17.548Z,16.08
2023-05-22T12:27:53.218Z,16.35
2023-05-22T12:30:20.702Z,18.02
2023-05-22T12:32:49.237Z,17.45
2023-05-22T12:35:17.801Z,17.63
2023-05-22T12:37:52.214Z,17.60
2023-05-22T12:40:19.806Z,16.70
2023-05-22T12:42:56.209Z,18.30
2023-05-22T12:45:23.065Z,20.25
2023-05-22T12:47:50.103Z,18.55
2023-05-22T12:50:17.181Z,18.73
2023-05-22T12:52:54.617Z,21.15
2023-05-22T12:55:21.514Z,19.15
2023-05-22T12:57:52.289Z,21.20
2023-05-22T13:00:19.202Z,18.58
2023-05-22T13:02:46.322Z,16.42
2023-05-22T13:05:14.426Z,16.35
2023-05-22T13:07:42.574Z,15.32
2023-05-22T13:10:19.751Z,15.95
2023-05-22T13:12:56.088Z,16.05
2023-05-22T13:15:22.956Z,16.65
2023-05-22T13:17:51.084Z,16.95
2023-05-22T13:20:18.077Z,18.83
2023-05-22T13:22:50.881Z,17.00
2023-05-22T13:25:19.206Z,15.18
2023-05-22T13:27:55.202Z,14.80
2023-05-22T13:30:22.328Z,14.45
2023-05-22T13:32:51.893Z,14.07
2023-05-22T13:35:19.808Z,13.98
2023-05-22T13:37:49.917Z,14.00
2023-05-22T13:40:20.247Z,13.52
2023-05-22T13:42:50.983Z,13.35
2023-05-22T13:45:18.087Z,15.40
2023-05-22T13:47:49.682Z,15.70
2023-05-22T13:50:16.663Z,17.08
2023-05-22T13:52:51.187Z,16.05
2023-05-22T13:55:18.733Z,15.48
2023-05-22T13:57:56.109Z,15.70
2023-05-22T14:00:23.030Z,14.50
2023-05-22T14:02:50.190Z,15.88
2023-05-22T14:05:17.028Z,15.63
2023-05-22T14:07:48.307Z,15.52
2023-05-22T14:10:16.020Z,15.95
2023-05-22T14:12:43.041Z,15.77
2023-05-22T14:15:16.019Z,15.18
2023-05-22T14:17:51.881Z,15.13
2023-05-22T14:20:18.918Z,15.77
2023-05-22T14:22:57.290Z,14.00
2023-05-22T14:25:29.974Z,13.60
2023-05-22T14:27:57.744Z,12.98
2023-05-22T14:30:24.821Z,14.57
2023-05-22T14:32:52.325Z,14.35
2023-05-22T14:35:19.280Z,14.23
2023-05-22T14:37:48.015Z,14.82
2023-05-22T14:40:15.246Z,13.40
2023-05-22T14:42:42.292Z,13.68
2023-05-22T14:45:09.930Z,12.52
2023-05-22T14:47:47.523Z,12.48
2023-05-22T14:50:19.773Z,12.48
2023-05-22T14:52:51.320Z,12.02
2023-05-22T14:55:18.428Z,11.15
2023-05-22T14:57:51.122Z,11.88
2023-05-22T15:00:18.393Z,9.77
2023-05-22T15:02:46.479Z,11.07
2023-05-22T15:05:14.250Z,10.05
2023-05-22T15:07:46.077Z,10.60
2023-05-22T15:10:18.063Z,9.88
2023-05-22T15:12:49.158Z,9.88
2023-05-22T15:15:20.903Z,9.73
2023-05-22T15:17:50.230Z,9.30
2023-05-22T15:20:17.781Z,9.15
2023-05-22T15:22:49.560Z,8.75
2023-05-22T15:25:16.440Z,8.10
2023-05-22T15:27:56.417Z,8.60
2023-05-22T15:30:25.276Z,7.63
2023-05-22T15:32:53.106Z,8.45
2023-05-22T15:35:19.925Z,7.40
2023-05-22T15:37:51.542Z,8.70
2023-05-22T15:40:22.478Z,7.65
2023-05-22T15:42:53.866Z,7.65
2023-05-22T15:45:21.698Z,7.28
2023-05-22T15:47:49.638Z,7.43
2023-05-22T15:50:17.561Z,7.47
2023-05-22T15:52:51.806Z,7.10
2023-05-22T15:55:18.916Z,6.80
2023-05-22T15:57:53.826Z,6.15
2023-05-22T16:00:21.905Z,6.55
2023-05-22T16:02:49.469Z,6.20
2023-05-22T16:05:16.930Z,6.10
2023-05-22T16:07:44.936Z,5.80
2023-05-22T16:10:16.989Z,5.15
2023-05-22T16:12:53.074Z,5.05
2023-05-22T16:15:21.689Z,5.35
2023-05-22T16:17:51.724Z,5.15
2023-05-22T16:20:19.965Z,5.07
2023-05-22T16:22:50.341Z,4.88
2023-05-22T16:25:17.594Z,4.40
2023-05-22T16:27:48.144Z,4.13
2023-05-22T16:30:21.711Z,4.35
2023-05-22T16:32:49.253Z,4.45
2023-05-22T16:35:19.465Z,4.75
2023-05-22T16:37:46.583Z,4.13
2023-05-22T16:40:14.734Z,5.20
2023-05-22T16:42:41.851Z,5.20
2023-05-22T16:45:08.957Z,5.15
2023-05-22T16:47:38.302Z,4.30
2023-05-22T16:50:09.983Z,5.00
2023-05-22T16:52:39.876Z,4.68
2023-05-22T16:55:07.888Z,4.68
2023-05-22T16:57:40.234Z,3.90
2023-05-22T17:00:10.948Z,3.67
2023-05-22T17:02:42.518Z,3.38
2023-05-22T17:05:11.992Z,3.30
2023-05-22T17:07:40.188Z,3.03
2023-05-22T17:10:07.660Z,2.97
2023-05-22T17:12:35.374Z,2.80
2023-05-22T17:15:02.767Z,3.05
2023-05-22T17:17:43.157Z,2.95
2023-05-22T17:20:11.530Z,3.35
2023-05-22T17:22:41.594Z,3.25
2023-05-22T17:25:09.153Z,3.40
2023-05-22T17:27:40.122Z,3.00
2023-05-22T17:30:08.697Z,4.13
2023-05-22T17:32:42.054Z,3.60
2023-05-22T17:35:11.865Z,3.17
2023-05-22T17:37:39.964Z,3.40
2023-05-22T17:40:08.809Z,3.25
2023-05-22T17:42:36.206Z,3.53
2023-05-22T17:45:03.680Z,3.78
2023-05-22T17:47:32.277Z,4.00
2023-05-22T17:49:59.091Z,3.53
2023-05-22T17:52:25.900Z,3.83
2023-05-22T17:54:55.900Z,3.63
2023-05-22T17:57:23.016Z,4.03
2023-05-22T17:59:52.170Z,4.35
2023-05-22T18:02:24.662Z,4.32
2023-05-22T18:04:51.756Z,4.60
2023-05-22T18:07:19.997Z,4.60
2023-05-22T18:09:47.505Z,4.88
2023-05-22T18:12:31.207Z,5.25
2023-05-22T18:14:59.868Z,5.05
2023-05-22T18:17:26.781Z,5.22
2023-05-22T18:19:59.343Z,5.13
2023-05-22T18:22:26.339Z,5.68
2023-05-22T18:24:53.426Z,5.45
2023-05-22T18:27:20.710Z,5.30
2023-05-22T18:29:48.331Z,5.88
2023-05-22T18:32:18.518Z,6.25
2023-05-22T18:34:49.916Z,6.13
2023-05-22T18:37:18.996Z,5.85
2023-05-22T18:39:47.072Z,6.03
2023-05-22T18:42:20.977Z,6.07
2023-05-22T18:44:49.217Z,6.15
2023-05-22T18:47:26.895Z,6.22
2023-05-22T18:49:54.837Z,7.40
2023-05-22T18:52:22.520Z,6.00
2023-05-22T18:54:49.465Z,6.05
2023-05-22T18:57:19.346Z,7.10
2023-05-22T18:59:53.872Z,7.10
2023-05-22T19:02:24.993Z,6.85
2023-05-22T19:04:52.786Z,6.43
2023-05-22T19:07:21.334Z,6.65
2023-05-22T19:09:49.685Z,7.10
2023-05-22T19:12:19.351Z,6.57
2023-05-22T19:14:48.538Z,7.10
2023-05-22T19:17:26.209Z,7.90
2023-05-22T19:19:54.660Z,8.43
2023-05-22T19:22:22.563Z,9.60
2023-05-22T19:24:51.710Z,8.68
2023-05-22T19:27:19.381Z,9.38
2023-05-22T19:29:46.458Z,9.20
2023-05-22T19:32:23.643Z,9.18
2023-05-22T19:34:50.798Z,9.20
2023-05-22T19:37:18.130Z,9.25
2023-05-22T19:39:45.054Z,10.10
2023-05-22T19:42:20.016Z,9.65
2023-05-22T19:44:47.422Z,9.93
2023-05-22T19:47:23.920Z,9.55
2023-05-22T19:49:51.276Z,9.90
2023-05-22T19:52:21.830Z,9.23
2023-05-22T19:54:49.763Z,9.63
2023-05-22T19:57:22.160Z,10.25
2023-05-22T19:59:51.163Z,10.65
2023-05-22T20:02:23.773Z,10.25
2023-05-22T20:04:52.000Z,10.50
2023-05-22T20:07:20.362Z,10.43
2023-05-22T20:09:48.555Z,9.85
2023-05-22T20:12:19.148Z,10.73
2023-05-22T20:14:49.613Z,10.20
2023-05-22T20:17:22.405Z,10.45
2023-05-22T20:30:27.759Z,10.48
2023-05-22T20:32:54.892Z,10.82
2023-05-22T20:35:22.405Z,11.20
2023-05-22T20:37:51.317Z,10.95
2023-05-22T20:40:22.332Z,11.18
2023-05-22T20:43:02.191Z,12.45
2023-05-22T20:45:34.237Z,13.73
2023-05-22T20:48:01.315Z,16.50
2023-05-22T20:50:28.316Z,18.88
2023-05-22T20:53:00.221Z,18.77
2023-05-22T20:55:27.336Z,20.77
2023-05-22T20:58:00.144Z,21.65
2023-05-22T21:00:28.665Z,21.75
2023-05-22T21:02:58.424Z,21.08
2023-05-22T21:05:25.778Z,19.55
2023-05-22T21:07:57.388Z,19.83
2023-05-22T21:10:24.276Z,19.88
2023-05-22T21:12:52.938Z,20.85
2023-05-22T21:15:25.451Z,21.98
2023-05-22T21:17:53.521Z,20.33
2023-05-22T21:20:20.483Z,21.25
2023-05-22T21:22:48.528Z,20.05
2023-05-22T21:25:15.729Z,21.25
2023-05-22T21:27:42.900Z,20.05
2023-05-22T21:30:12.414Z,20.05
2023-05-22T21:32:48.612Z,19.67
2023-05-22T21:35:16.032Z,18.42
2023-05-22T21:37:43.952Z,17.25
2023-05-22T21:40:11.352Z,17.60
2023-05-22T21:42:46.470Z,19.15
2023-05-22T21:45:14.642Z,18.10
2023-05-22T21:47:47.294Z,18.83
2023-05-22T21:50:16.020Z,18.55
2023-05-22T21:52:44.361Z,18.38
2023-05-22T21:55:11.358Z,17.70
2023-05-22T21:57:50.313Z,17.83
2023-05-22T22:00:19.826Z,19.00
2023-05-22T22:02:46.905Z,19.10
2023-05-22T22:05:14.296Z,18.75
2023-05-22T22:07:41.191Z,17.98
2023-05-22T22:10:08.701Z,17.02
2023-05-22T22:12:46.289Z,16.95
2023-05-22T22:15:14.157Z,16.90
2023-05-22T22:17:52.988Z,17.85
2023-05-22T22:20:30.342Z,16.98
2023-05-22T22:25:35.534Z,16.58
2023-05-22T22:28:05.491Z,17.33
2023-05-22T22:30:32.485Z,15.00
2023-05-22T22:33:00.491Z,15.00
2023-05-22T22:35:27.885Z,14.55
2023-05-22T22:37:54.679Z,13.40
2023-05-22T22:40:23.380Z,11.75
2023-05-22T22:42:51.877Z,10.93
2023-05-22T22:45:18.955Z,10.73
2023-05-22T22:47:47.065Z,11.02
2023-05-22T22:50:14.361Z,10.07
2023-05-22T22:52:45.641Z,9.43
2023-05-22T22:55:13.528Z,9.80
2023-05-22T22:57:44.666Z,9.57
2023-05-22T23:00:13.863Z,8.88
2023-05-22T23:02:44.887Z,8.88
2023-05-22T23:05:12.542Z,9.05
2023-05-22T23:07:40.514Z,9.23
2023-05-22T23:10:08.354Z,9.23
2023-05-22T23:12:45.221Z,10.32
2023-05-22T23:15:13.696Z,11.52
2023-05-22T23:17:49.089Z,11.40
2023-05-22T23:20:19.310Z,13.05
2023-05-22T23:22:48.377Z,12.88
2023-05-22T23:25:16.237Z,13.82
2023-05-22T23:27:43.624Z,13.07
2023-05-22T23:30:10.711Z,12.85
2023-05-22T23:32:42.222Z,12.90
2023-05-22T23:35:11.271Z,12.43
2023-05-22T23:37:40.380Z,12.30
2023-05-22T23:40:11.762Z,13.48
2023-05-22T23:42:40.276Z,13.23
2023-05-22T23:45:07.867Z,13.70
2023-05-22T23:47:39.310Z,13.82
2023-05-22T23:50:10.274Z,11.43
2023-05-22T23:52:40.161Z,13.32
2023-05-22T23:55:08.799Z,14.02
2023-05-22T23:57:39.410Z,14.40
